createdAt,value
2018-05-27T00:00:38.195Z,12.29
2018-05-27T00:01:38.137Z,12.24
2018-05-27T00:02:38.137Z,12.17
2018-05-27T00:03:38.089Z,12.21
2018-05-27T00:04:38.623Z,12.29
2018-05-27T00:05:38.002Z,12.24
2018-05-27T00:06:38.026Z,12.24
2018-05-27T00:07:37.939Z,12.12
2018-05-27T00:08:37.910Z,12.01
2018-05-27T00:09:37.892Z,12.05
2018-05-27T00:10:37.872Z,12.16
2018-05-27T00:11:37.821Z,12.02
2018-05-27T00:12:37.765Z,12.07
2018-05-27T00:13:37.741Z,12.10
2018-05-27T00:14:37.691Z,12.19
2018-05-27T00:15:37.667Z,12.28
2018-05-27T00:16:37.636Z,12.37
2018-05-27T00:17:37.576Z,12.32
2018-05-27T00:18:37.563Z,12.37
2018-05-27T00:19:37.513Z,12.31
2018-05-27T00:20:37.472Z,12.20
2018-05-27T00:21:37.482Z,12.20
2018-05-27T00:22:37.406Z,12.09
2018-05-27T00:23:37.391Z,12.05
2018-05-27T00:24:37.342Z,12.10
2018-05-27T00:25:37.314Z,12.16
2018-05-27T00:26:37.264Z,12.24
2018-05-27T00:27:37.230Z,12.28
2018-05-27T00:28:37.201Z,12.35
2018-05-27T00:29:37.158Z,12.35
2018-05-27T00:30:37.123Z,12.21
2018-05-27T00:31:37.076Z,12.21
2018-05-27T00:32:37.055Z,12.13
2018-05-27T00:33:37.029Z,12.10
2018-05-27T00:34:37.015Z,12.13
2018-05-27T00:35:36.977Z,12.13
2018-05-27T00:36:36.928Z,12.27
2018-05-27T00:37:36.881Z,12.42
2018-05-27T00:38:36.871Z,12.28
2018-05-27T00:39:36.823Z,12.05
2018-05-27T00:40:36.817Z,12.02
2018-05-27T00:41:36.751Z,12.01
2018-05-27T00:42:36.703Z,12.05
2018-05-27T00:43:36.657Z,12.17
2018-05-27T00:44:36.617Z,12.23
2018-05-27T00:45:36.585Z,12.24
2018-05-27T00:46:36.551Z,12.32
2018-05-27T00:47:36.537Z,12.38
2018-05-27T00:48:36.489Z,12.19
2018-05-27T00:49:36.446Z,11.98
2018-05-27T00:50:36.432Z,12.09
2018-05-27T00:51:36.397Z,12.12
2018-05-27T00:52:36.384Z,11.91
2018-05-27T00:53:36.304Z,11.88
2018-05-27T00:54:36.261Z,11.91
2018-05-27T00:55:36.326Z,11.76
2018-05-27T00:56:36.219Z,11.90
2018-05-27T00:57:36.197Z,11.78
2018-05-27T00:58:36.132Z,11.64
2018-05-27T00:59:36.099Z,11.58
2018-05-27T01:00:36.064Z,11.55
2018-05-27T01:01:36.024Z,11.70
2018-05-27T01:02:35.977Z,11.70
2018-05-27T01:03:35.955Z,11.79
2018-05-27T01:04:35.939Z,11.70
2018-05-27T01:05:35.923Z,11.61
2018-05-27T01:06:35.853Z,11.54
2018-05-27T01:07:35.820Z,11.42
2018-05-27T01:08:35.769Z,11.44
2018-05-27T01:09:35.782Z,11.51
2018-05-27T01:10:35.700Z,11.64
2018-05-27T01:11:35.676Z,11.99
2018-05-27T01:12:35.620Z,11.94
2018-05-27T01:13:35.601Z,12.05
2018-05-27T01:14:35.553Z,11.91
2018-05-27T01:15:35.552Z,12.14
2018-05-27T01:16:35.507Z,12.02
2018-05-27T01:17:35.437Z,11.85
2018-05-27T01:18:35.428Z,11.72
2018-05-27T01:19:35.373Z,11.64
2018-05-27T01:20:35.335Z,11.65
2018-05-27T01:21:35.297Z,11.43
2018-05-27T01:22:35.290Z,11.35
2018-05-27T01:23:35.363Z,11.18
2018-05-27T01:24:35.187Z,11.29
2018-05-27T01:25:35.169Z,11.32
2018-05-27T01:26:35.119Z,11.32
2018-05-27T01:27:35.100Z,11.25
2018-05-27T01:28:35.060Z,11.14
2018-05-27T01:29:35.007Z,11.15
2018-05-27T01:30:34.967Z,11.14
2018-05-27T01:31:34.939Z,11.06
2018-05-27T01:32:34.905Z,10.99
2018-05-27T01:33:34.916Z,11.09
2018-05-27T01:34:34.856Z,11.18
2018-05-27T01:35:34.806Z,11.17
2018-05-27T01:36:34.753Z,11.29
2018-05-27T01:37:34.726Z,11.42
2018-05-27T01:38:34.682Z,11.55
2018-05-27T01:39:34.685Z,11.54
2018-05-27T01:40:34.619Z,11.49
2018-05-27T01:41:34.580Z,11.55
2018-05-27T01:42:34.576Z,11.54
2018-05-27T01:43:34.524Z,11.47
2018-05-27T01:44:34.505Z,11.47
2018-05-27T01:45:34.441Z,11.35
2018-05-27T01:46:34.404Z,11.32
2018-05-27T01:47:34.414Z,11.43
2018-05-27T01:48:34.345Z,11.51
2018-05-27T01:49:34.288Z,11.61
2018-05-27T01:50:34.263Z,11.47
2018-05-27T01:51:34.228Z,11.54
2018-05-27T01:52:34.197Z,11.52
2018-05-27T01:53:34.160Z,11.44
2018-05-27T01:54:34.120Z,11.51
2018-05-27T01:55:34.080Z,11.44
2018-05-27T01:56:34.044Z,11.55
2018-05-27T01:57:34.043Z,11.54
2018-05-27T01:58:33.972Z,11.55
2018-05-27T01:59:33.931Z,11.52
2018-05-27T02:00:33.893Z,11.52
2018-05-27T02:01:33.877Z,11.47
2018-05-27T02:02:33.815Z,11.65
2018-05-27T02:03:33.792Z,11.72
2018-05-27T02:04:33.781Z,11.73
2018-05-27T02:05:33.745Z,11.82
2018-05-27T02:06:33.677Z,11.83
2018-05-27T02:07:33.643Z,11.79
2018-05-27T02:08:33.611Z,11.86
2018-05-27T02:09:33.599Z,11.85
2018-05-27T02:10:33.528Z,11.80
2018-05-27T02:11:33.503Z,11.82
2018-05-27T02:12:33.463Z,11.83
2018-05-27T02:13:33.432Z,11.82
2018-05-27T02:14:33.384Z,11.86
2018-05-27T02:15:33.393Z,11.88
2018-05-27T02:16:33.361Z,11.91
2018-05-27T02:17:33.285Z,11.94
2018-05-27T02:18:33.280Z,11.90
2018-05-27T02:19:33.259Z,12.02
2018-05-27T02:20:33.200Z,11.94
2018-05-27T02:21:33.136Z,12.12
2018-05-27T02:22:33.096Z,12.05
2018-05-27T02:23:33.094Z,12.01
2018-05-27T02:24:33.032Z,12.14
2018-05-27T02:25:32.990Z,12.12
2018-05-27T02:26:32.968Z,12.14
2018-05-27T02:27:32.920Z,12.12
2018-05-27T02:28:32.908Z,12.24
2018-05-27T02:29:32.856Z,12.21
2018-05-27T02:30:32.827Z,12.23
2018-05-27T02:31:32.807Z,12.21
2018-05-27T02:32:32.743Z,12.32
2018-05-27T02:33:32.728Z,12.23
2018-05-27T02:34:32.695Z,12.20
2018-05-27T02:35:32.640Z,12.19
2018-05-27T02:36:32.609Z,12.24
2018-05-27T02:37:32.582Z,12.24
2018-05-27T02:38:32.526Z,12.17
2018-05-27T02:39:32.495Z,12.20
2018-05-27T02:40:32.462Z,12.21
2018-05-27T02:41:32.438Z,12.17
2018-05-27T02:42:32.395Z,12.13
2018-05-27T02:43:32.354Z,12.09
2018-05-27T02:44:32.337Z,12.13
2018-05-27T02:45:32.291Z,12.16
2018-05-27T02:46:32.256Z,12.14
2018-05-27T02:47:32.231Z,12.16
2018-05-27T02:48:32.193Z,12.14
2018-05-27T02:49:32.148Z,12.02
2018-05-27T02:50:32.119Z,11.96
2018-05-27T02:51:32.057Z,12.13
2018-05-27T02:52:32.027Z,12.24
2018-05-27T02:53:32.059Z,12.20
2018-05-27T02:54:32.000Z,12.14
2018-05-27T02:55:31.927Z,12.16
2018-05-27T02:56:31.885Z,12.10
2018-05-27T02:57:31.892Z,12.04
2018-05-27T02:58:31.836Z,12.07
2018-05-27T02:59:31.775Z,12.12
2018-05-27T03:00:31.763Z,12.02
2018-05-27T03:01:31.701Z,12.01
2018-05-27T03:02:31.696Z,12.10
2018-05-27T03:03:31.627Z,12.17
2018-05-27T03:04:31.608Z,12.16
2018-05-27T03:05:31.566Z,12.19
2018-05-27T03:06:31.534Z,12.28
2018-05-27T03:07:31.492Z,12.35
2018-05-27T03:08:31.463Z,12.35
2018-05-27T03:09:31.475Z,12.32
2018-05-27T03:10:31.392Z,12.28
2018-05-27T03:11:31.389Z,12.23
2018-05-27T03:12:31.309Z,12.19
2018-05-27T03:13:31.290Z,12.23
2018-05-27T03:14:31.239Z,12.09
2018-05-27T03:15:31.225Z,12.13
2018-05-27T03:16:31.176Z,12.21
2018-05-27T03:17:31.167Z,12.21
2018-05-27T03:18:31.112Z,12.16
2018-05-27T03:19:31.070Z,12.28
2018-05-27T03:20:31.060Z,12.17
2018-05-27T03:21:31.006Z,12.29
2018-05-27T03:22:30.993Z,12.23
2018-05-27T03:23:30.929Z,12.20
2018-05-27T03:24:30.902Z,12.16
2018-05-27T03:25:30.854Z,12.12
2018-05-27T03:26:30.833Z,12.12
2018-05-27T03:27:30.784Z,12.16
2018-05-27T03:28:30.769Z,12.13
2018-05-27T03:29:30.733Z,12.05
2018-05-27T03:30:30.674Z,12.23
2018-05-27T03:31:30.679Z,12.23
2018-05-27T03:32:30.605Z,12.13
2018-05-27T03:33:30.595Z,12.28
2018-05-27T03:34:30.547Z,12.23
2018-05-27T03:35:30.516Z,12.21
2018-05-27T03:36:30.508Z,12.35
2018-05-27T03:37:30.418Z,12.45
2018-05-27T03:38:30.409Z,12.52
2018-05-27T03:39:30.385Z,12.54
2018-05-27T03:40:30.327Z,12.49
2018-05-27T03:41:30.299Z,12.62
2018-05-27T03:42:30.258Z,12.60
2018-05-27T03:43:30.244Z,12.68
2018-05-27T03:44:30.179Z,12.67
2018-05-27T03:45:30.174Z,12.70
2018-05-27T03:46:30.124Z,12.68
2018-05-27T03:47:30.073Z,12.77
2018-05-27T03:48:30.077Z,12.75
2018-05-27T03:49:30.014Z,12.87
2018-05-27T03:50:29.980Z,12.93
2018-05-27T03:51:29.948Z,13.03
2018-05-27T03:52:29.912Z,13.05
2018-05-27T03:53:29.907Z,13.01
2018-05-27T03:54:29.833Z,13.05
2018-05-27T03:55:29.801Z,13.14
2018-05-27T03:56:29.754Z,13.19
2018-05-27T03:57:29.743Z,13.11
2018-05-27T03:58:29.696Z,13.05
2018-05-27T03:59:29.655Z,13.17
2018-05-27T04:00:29.633Z,13.30
2018-05-27T04:01:29.603Z,13.15
2018-05-27T04:02:29.570Z,13.23
2018-05-27T04:03:29.519Z,13.29
2018-05-27T04:04:29.482Z,13.26
2018-05-27T04:05:29.453Z,13.39
2018-05-27T04:06:29.426Z,13.45
2018-05-27T04:07:29.377Z,13.36
2018-05-27T04:08:29.350Z,13.41
2018-05-27T04:09:29.315Z,13.39
2018-05-27T04:10:29.263Z,13.41
2018-05-27T04:11:29.255Z,13.52
2018-05-27T04:12:29.260Z,13.51
2018-05-27T04:13:29.207Z,13.55
2018-05-27T04:14:29.191Z,13.59
2018-05-27T04:15:29.105Z,13.62
2018-05-27T04:16:29.065Z,13.54
2018-05-27T04:17:29.061Z,13.66
2018-05-27T04:18:29.034Z,13.60
2018-05-27T04:19:28.965Z,13.59
2018-05-27T04:20:28.945Z,13.63
2018-05-27T04:21:28.894Z,13.63
2018-05-27T04:22:28.880Z,13.71
2018-05-27T04:23:28.827Z,13.63
2018-05-27T04:24:28.821Z,13.67
2018-05-27T04:25:28.759Z,13.71
2018-05-27T04:26:28.762Z,13.70
2018-05-27T04:27:28.702Z,13.73
2018-05-27T04:28:28.677Z,13.79
2018-05-27T04:29:28.621Z,13.87
2018-05-27T04:30:28.587Z,13.89
2018-05-27T04:31:28.545Z,13.85
2018-05-27T04:32:28.528Z,13.88
2018-05-27T04:33:28.474Z,13.97
2018-05-27T04:34:28.465Z,14.09
2018-05-27T04:35:28.410Z,14.04
2018-05-27T04:36:28.385Z,14.10
2018-05-27T04:37:28.358Z,14.15
2018-05-27T04:38:28.327Z,14.15
2018-05-27T04:39:28.284Z,14.24
2018-05-27T04:40:28.248Z,14.27
2018-05-27T04:41:28.239Z,14.22
2018-05-27T04:42:28.199Z,14.29
2018-05-27T04:43:28.220Z,14.18
2018-05-27T04:44:28.104Z,14.25
2018-05-27T04:45:28.145Z,14.27
2018-05-27T04:46:28.031Z,14.27
2018-05-27T04:47:28.010Z,14.21
2018-05-27T04:48:27.963Z,14.21
2018-05-27T04:49:27.945Z,14.25
2018-05-27T04:50:27.929Z,14.25
2018-05-27T04:51:27.885Z,14.29
2018-05-27T04:52:27.846Z,14.43
2018-05-27T04:53:27.836Z,14.42
2018-05-27T04:54:27.830Z,14.57
2018-05-27T04:55:27.788Z,14.40
2018-05-27T04:56:27.725Z,14.45
2018-05-27T04:57:27.684Z,14.40
2018-05-27T04:58:27.635Z,14.43
2018-05-27T04:59:27.626Z,14.57
2018-05-27T05:00:27.593Z,14.51
2018-05-27T05:01:27.553Z,14.52
2018-05-27T05:02:27.560Z,14.45
2018-05-27T05:03:27.497Z,14.65
2018-05-27T05:04:27.419Z,14.62
2018-05-27T05:05:27.395Z,14.62
2018-05-27T05:06:27.349Z,14.73
2018-05-27T05:07:27.323Z,14.84
2018-05-27T05:08:27.293Z,14.69
2018-05-27T05:09:27.289Z,14.61
2018-05-27T05:10:27.235Z,14.64
2018-05-27T05:11:27.191Z,14.68
2018-05-27T05:12:27.163Z,14.58
2018-05-27T05:13:27.151Z,14.70
2018-05-27T05:14:27.101Z,14.86
2018-05-27T05:15:27.062Z,14.86
2018-05-27T05:16:27.030Z,14.91
2018-05-27T05:17:27.027Z,14.92
2018-05-27T05:18:26.949Z,14.88
2018-05-27T05:19:26.904Z,14.84
2018-05-27T05:20:26.905Z,15.09
2018-05-27T05:21:26.849Z,15.10
2018-05-27T05:22:26.836Z,15.23
2018-05-27T05:23:26.795Z,15.28
2018-05-27T05:24:26.755Z,15.29
2018-05-27T05:25:26.733Z,15.31
2018-05-27T05:26:26.712Z,15.29
2018-05-27T05:27:26.683Z,15.29
2018-05-27T05:28:26.643Z,15.31
2018-05-27T05:29:26.620Z,15.27
2018-05-27T05:30:26.557Z,15.44
2018-05-27T05:31:26.560Z,15.50
2018-05-27T05:32:26.489Z,15.60
2018-05-27T05:33:26.464Z,15.65
2018-05-27T05:34:26.422Z,15.65
2018-05-27T05:35:26.396Z,15.67
2018-05-27T05:36:26.406Z,15.47
2018-05-27T05:37:26.332Z,15.39
2018-05-27T05:38:26.309Z,15.56
2018-05-27T05:39:26.259Z,15.53
2018-05-27T05:40:26.219Z,15.44
2018-05-27T05:41:26.211Z,15.41
2018-05-27T05:42:26.165Z,15.50
2018-05-27T05:43:26.123Z,15.56
2018-05-27T05:44:26.138Z,15.49
2018-05-27T05:45:26.055Z,15.38
2018-05-27T05:46:26.049Z,15.49
2018-05-27T05:47:26.001Z,15.65
2018-05-27T05:48:25.991Z,15.76
2018-05-27T05:49:25.970Z,16.00
2018-05-27T05:50:25.908Z,16.09
2018-05-27T05:51:25.869Z,15.84
2018-05-27T05:52:25.846Z,15.76
2018-05-27T05:53:25.797Z,15.65
2018-05-27T05:54:25.781Z,15.67
2018-05-27T05:55:25.753Z,15.80
2018-05-27T05:56:25.721Z,15.96
2018-05-27T05:57:25.689Z,16.20
2018-05-27T05:58:25.670Z,16.30
2018-05-27T05:59:25.600Z,16.46
2018-05-27T06:00:25.580Z,16.49
2018-05-27T06:01:26.238Z,16.53
2018-05-27T06:02:25.520Z,16.42
2018-05-27T06:03:25.488Z,16.43
2018-05-27T06:04:25.468Z,16.34
2018-05-27T06:05:25.415Z,16.35
2018-05-27T06:06:25.375Z,16.42
2018-05-27T06:07:25.359Z,16.27
2018-05-27T06:08:25.316Z,16.46
2018-05-27T06:09:25.292Z,16.46
2018-05-27T06:10:25.257Z,16.50
2018-05-27T06:11:25.268Z,16.67
2018-05-27T06:12:25.205Z,16.85
2018-05-27T06:13:25.157Z,16.96
2018-05-27T06:14:25.133Z,17.16
2018-05-27T06:15:25.129Z,17.28
2018-05-27T06:16:25.081Z,17.36
2018-05-27T06:17:25.046Z,17.70
2018-05-27T06:18:24.996Z,17.92
2018-05-27T06:19:24.963Z,18.03
2018-05-27T06:20:24.958Z,18.42
2018-05-27T06:21:25.001Z,18.75
2018-05-27T06:22:24.876Z,18.72
2018-05-27T06:23:24.844Z,18.72
2018-05-27T06:24:24.816Z,19.10
2018-05-27T06:25:24.833Z,19.26
2018-05-27T06:26:24.762Z,19.47
2018-05-27T06:27:24.714Z,19.81
2018-05-27T06:28:24.704Z,20.05
2018-05-27T06:29:24.668Z,20.17
2018-05-27T06:30:24.656Z,20.35
2018-05-27T06:31:24.610Z,20.38
2018-05-27T06:32:24.572Z,20.41
2018-05-27T06:33:24.558Z,20.54
2018-05-27T06:34:24.565Z,20.72
2018-05-27T06:35:24.476Z,20.82
2018-05-27T06:36:24.452Z,20.91
2018-05-27T06:37:24.451Z,20.94
2018-05-27T06:38:24.392Z,20.88
2018-05-27T06:39:24.362Z,21.25
2018-05-27T06:40:24.376Z,21.54
2018-05-27T06:41:24.322Z,21.47
2018-05-27T06:42:24.294Z,21.37
2018-05-27T06:43:24.260Z,21.54
2018-05-27T06:44:24.232Z,21.62
2018-05-27T06:45:24.204Z,21.80
2018-05-27T06:46:24.178Z,21.79
2018-05-27T06:47:24.134Z,21.91
2018-05-27T06:48:24.116Z,21.99
2018-05-27T06:49:24.107Z,22.09
2018-05-27T06:50:24.053Z,22.33
2018-05-27T06:51:24.019Z,22.37
2018-05-27T06:52:24.017Z,22.14
2018-05-27T06:53:23.974Z,22.75
2018-05-27T06:54:23.937Z,23.32
2018-05-27T06:55:23.922Z,23.97
2018-05-27T06:56:23.873Z,24.99
2018-05-27T06:57:23.855Z,25.90
2018-05-27T06:58:23.850Z,25.95
2018-05-27T06:59:23.786Z,26.13
2018-05-27T07:00:23.752Z,26.67
2018-05-27T07:01:23.751Z,26.76
2018-05-27T07:02:23.700Z,27.21
2018-05-27T07:03:23.696Z,26.45
2018-05-27T07:04:23.687Z,25.42
2018-05-27T07:05:23.636Z,23.54
2018-05-27T07:06:23.603Z,23.42
2018-05-27T07:07:23.571Z,23.27
2018-05-27T07:08:23.556Z,23.31
2018-05-27T07:09:23.521Z,23.42
2018-05-27T07:10:23.512Z,23.60
2018-05-27T07:11:23.475Z,23.57
2018-05-27T07:12:23.442Z,23.65
2018-05-27T07:13:23.423Z,23.55
2018-05-27T07:14:23.413Z,23.17
2018-05-27T07:15:23.374Z,23.10
2018-05-27T07:16:23.349Z,22.64
2018-05-27T07:17:23.330Z,22.45
2018-05-27T07:18:23.295Z,22.46
2018-05-27T07:19:23.299Z,22.30
2018-05-27T07:20:23.292Z,22.00
2018-05-27T07:21:23.253Z,22.03
2018-05-27T07:22:23.207Z,22.58
2018-05-27T07:23:23.175Z,23.23
2018-05-27T07:24:23.182Z,23.66
2018-05-27T07:25:23.141Z,24.05
2018-05-27T07:26:23.116Z,25.10
2018-05-27T07:27:23.070Z,25.64
2018-05-27T07:28:23.084Z,25.73
2018-05-27T07:29:23.040Z,26.18
2018-05-27T07:30:23.021Z,26.97
2018-05-27T07:31:22.977Z,26.87
2018-05-27T07:32:23.001Z,27.92
2018-05-27T07:33:22.951Z,26.67
2018-05-27T07:34:22.928Z,27.22
2018-05-27T07:35:22.897Z,26.47
2018-05-27T07:36:22.868Z,26.67
2018-05-27T07:37:22.843Z,27.29
2018-05-27T07:38:22.828Z,27.34
2018-05-27T07:39:22.829Z,28.21
2018-05-27T07:40:22.771Z,28.49
2018-05-27T07:41:22.775Z,29.05
2018-05-27T07:42:22.740Z,27.74
2018-05-27T07:43:22.714Z,27.17
2018-05-27T07:44:22.695Z,27.99
2018-05-27T07:45:22.697Z,28.40
2018-05-27T07:46:22.664Z,29.11
2018-05-27T07:47:22.631Z,28.11
2018-05-27T07:48:22.616Z,28.36
2018-05-27T07:49:22.588Z,27.37
2018-05-27T07:50:22.571Z,28.25
2018-05-27T07:51:22.551Z,28.31
2018-05-27T07:52:22.508Z,29.06
2018-05-27T07:53:22.500Z,29.06
2018-05-27T07:54:22.505Z,28.03
2018-05-27T07:55:22.488Z,26.99
2018-05-27T07:56:22.454Z,25.99
2018-05-27T07:57:22.427Z,26.80
2018-05-27T07:58:22.484Z,27.66
2018-05-27T07:59:22.376Z,27.60
2018-05-27T08:00:22.369Z,27.40
2018-05-27T08:01:22.345Z,28.00
2018-05-27T08:02:22.344Z,28.24
2018-05-27T08:03:22.388Z,28.40
2018-05-27T08:04:22.281Z,29.34
2018-05-27T08:05:22.275Z,29.90
2018-05-27T08:06:22.270Z,30.55
2018-05-27T08:07:22.224Z,31.35
2018-05-27T08:08:22.225Z,31.75
2018-05-27T08:09:22.204Z,31.66
2018-05-27T08:10:22.167Z,31.57
2018-05-27T08:11:22.178Z,30.45
2018-05-27T08:12:22.165Z,30.57
2018-05-27T08:13:22.126Z,29.28
2018-05-27T08:14:22.104Z,28.54
2018-05-27T08:15:22.077Z,28.14
2018-05-27T08:16:22.066Z,29.24
2018-05-27T08:17:22.045Z,28.06
2018-05-27T08:18:22.024Z,28.51
2018-05-27T08:19:22.011Z,29.78
2018-05-27T08:20:21.995Z,30.20
2018-05-27T08:21:21.975Z,28.95
2018-05-27T08:22:21.985Z,28.81
2018-05-27T08:23:21.947Z,27.78
2018-05-27T08:24:21.939Z,28.18
2018-05-27T08:25:21.910Z,29.11
2018-05-27T08:26:21.904Z,28.89
2018-05-27T08:27:21.884Z,29.04
2018-05-27T08:28:21.872Z,29.16
2018-05-27T08:29:21.833Z,28.78
2018-05-27T08:30:21.824Z,29.41
2018-05-27T08:31:21.806Z,30.20
2018-05-27T08:32:21.797Z,29.95
2018-05-27T08:33:21.774Z,27.74
2018-05-27T08:34:21.762Z,26.76
2018-05-27T08:35:21.728Z,27.37
2018-05-27T08:36:21.728Z,27.99
2018-05-27T08:37:21.708Z,28.24
2018-05-27T08:38:21.688Z,27.32
2018-05-27T08:39:21.679Z,27.36
2018-05-27T08:40:21.662Z,27.75
2018-05-27T08:41:21.630Z,27.75
2018-05-27T08:42:21.644Z,28.15
2018-05-27T08:43:21.663Z,28.11
2018-05-27T08:44:21.577Z,28.25
2018-05-27T08:45:21.558Z,28.48
2018-05-27T08:46:21.553Z,29.11
2018-05-27T08:47:21.516Z,29.80
2018-05-27T08:48:21.524Z,28.86
2018-05-27T08:49:21.492Z,29.19
2018-05-27T09:06:06.963Z,28.98
2018-05-27T09:06:45.200Z,28.56
2018-05-27T09:08:38.447Z,28.40
2018-05-27T09:09:38.237Z,28.33
2018-05-27T09:11:32.023Z,28.48
2018-05-27T09:12:31.869Z,28.18
2018-05-27T09:13:31.769Z,28.31
2018-05-27T09:14:31.769Z,28.89
2018-05-27T09:15:31.750Z,29.33
2018-05-27T09:16:31.732Z,29.08
2018-05-27T09:17:31.744Z,28.80
2018-05-27T09:18:31.730Z,29.28
2018-05-27T09:19:31.692Z,30.10
2018-05-27T09:20:31.662Z,29.21
2018-05-27T09:21:31.678Z,29.87
2018-05-27T09:22:31.619Z,29.67
2018-05-27T09:23:31.649Z,29.79
2018-05-27T09:24:31.585Z,30.57
2018-05-27T09:25:31.581Z,29.80
2018-05-27T09:26:31.674Z,31.09
2018-05-27T09:27:31.530Z,30.60
2018-05-27T09:28:31.540Z,30.46
2018-05-27T09:29:31.486Z,29.87
2018-05-27T09:30:31.546Z,30.07
2018-05-27T09:31:31.446Z,29.60
2018-05-27T09:32:31.449Z,29.31
2018-05-27T09:33:31.421Z,29.89
2018-05-27T09:34:31.406Z,30.00
2018-05-27T09:35:31.374Z,30.05
2018-05-27T09:36:31.373Z,29.82
2018-05-27T09:37:31.339Z,29.23
2018-05-27T09:38:31.330Z,29.87
2018-05-27T09:39:31.308Z,30.75
2018-05-27T09:40:31.296Z,30.76
2018-05-27T09:41:31.267Z,30.10
2018-05-27T09:42:31.250Z,29.82
2018-05-27T09:43:31.260Z,30.24
2018-05-27T09:44:31.227Z,30.42
2018-05-27T09:45:31.260Z,29.63
2018-05-27T09:46:31.173Z,30.20
2018-05-27T09:47:31.163Z,30.27
2018-05-27T09:48:31.157Z,29.73
2018-05-27T09:49:31.134Z,30.45
2018-05-27T09:50:31.117Z,29.94
2018-05-27T09:51:31.125Z,29.24
2018-05-27T09:52:31.074Z,28.95
2018-05-27T09:53:31.054Z,29.79
2018-05-27T09:54:31.079Z,29.82
2018-05-27T09:55:31.021Z,29.57
2018-05-27T09:56:30.999Z,30.07
2018-05-27T09:57:31.015Z,30.31
2018-05-27T09:58:31.047Z,30.67
2018-05-27T09:59:30.953Z,30.45
2018-05-27T10:00:30.952Z,30.08
2018-05-27T10:01:30.911Z,29.90
2018-05-27T10:02:30.893Z,29.64
2018-05-27T10:03:30.883Z,29.90
2018-05-27T10:04:30.862Z,29.04
2018-05-27T10:05:30.842Z,29.76
2018-05-27T10:06:30.835Z,30.19
2018-05-27T10:07:30.807Z,29.45
2018-05-27T10:08:30.799Z,29.83
2018-05-27T10:09:30.821Z,30.42
2018-05-27T10:10:30.748Z,30.91
2018-05-27T10:11:30.746Z,31.21
2018-05-27T10:12:30.719Z,30.55
2018-05-27T10:13:30.699Z,30.67
2018-05-27T10:14:30.696Z,31.14
2018-05-27T10:15:30.660Z,31.50
2018-05-27T10:16:30.647Z,31.09
2018-05-27T10:17:30.639Z,31.14
2018-05-27T10:18:30.608Z,31.23
2018-05-27T10:19:30.596Z,30.34
2018-05-27T10:20:30.597Z,30.61
2018-05-27T10:21:30.564Z,30.10
2018-05-27T10:22:30.543Z,30.65
2018-05-27T10:23:30.523Z,31.12
2018-05-27T10:24:30.508Z,31.47
2018-05-27T10:25:30.492Z,31.26
2018-05-27T10:26:30.467Z,30.08
2018-05-27T10:27:30.449Z,30.57
2018-05-27T10:28:30.439Z,30.32
2018-05-27T10:29:30.437Z,30.45
2018-05-27T10:30:30.396Z,30.57
2018-05-27T10:31:30.378Z,30.53
2018-05-27T10:32:30.360Z,30.26
2018-05-27T10:33:30.328Z,30.72
2018-05-27T10:34:30.332Z,30.46
2018-05-27T10:35:30.299Z,30.72
2018-05-27T10:36:30.276Z,30.26
2018-05-27T10:37:30.262Z,29.94
2018-05-27T10:38:30.271Z,29.49
2018-05-27T10:39:30.225Z,29.41
2018-05-27T10:40:30.229Z,29.09
2018-05-27T10:41:30.183Z,29.12
2018-05-27T10:42:30.171Z,28.61
2018-05-27T10:43:30.228Z,28.85
2018-05-27T10:44:30.160Z,29.51
2018-05-27T10:45:30.114Z,29.76
2018-05-27T10:46:30.114Z,30.58
2018-05-27T10:47:30.101Z,30.23
2018-05-27T10:48:30.068Z,29.85
2018-05-27T10:49:30.036Z,29.04
2018-05-27T10:50:30.032Z,29.65
2018-05-27T10:51:30.017Z,29.60
2018-05-27T10:52:30.000Z,28.81
2018-05-27T10:53:29.970Z,28.07
2018-05-27T10:54:29.966Z,28.61
2018-05-27T10:55:29.951Z,28.92
2018-05-27T10:56:29.919Z,28.93
2018-05-27T10:57:29.914Z,29.08
2018-05-27T10:58:29.906Z,28.64
2018-05-27T10:59:29.885Z,28.55
2018-05-27T11:00:29.856Z,28.39
2018-05-27T11:01:29.831Z,28.98
2018-05-27T11:02:29.801Z,29.90
2018-05-27T11:03:29.806Z,29.79
2018-05-27T11:04:29.778Z,29.53
2018-05-27T11:05:29.738Z,30.20
2018-05-27T11:06:29.719Z,30.57
2018-05-27T11:07:29.715Z,30.49
2018-05-27T11:08:29.729Z,30.46
2018-05-27T11:09:29.690Z,30.39
2018-05-27T11:10:29.663Z,29.80
2018-05-27T11:11:29.661Z,29.49
2018-05-27T11:12:29.618Z,29.48
2018-05-27T11:13:29.606Z,29.94
2018-05-27T11:14:29.573Z,30.34
2018-05-27T11:15:29.556Z,28.88
2018-05-27T11:16:29.539Z,29.48
2018-05-27T11:17:29.537Z,29.92
2018-05-27T11:18:29.515Z,29.95
2018-05-27T11:19:29.499Z,29.23
2018-05-27T11:20:29.467Z,29.14
2018-05-27T11:21:29.443Z,29.31
2018-05-27T11:22:29.440Z,29.58
2018-05-27T11:23:29.422Z,29.18
2018-05-27T11:24:29.392Z,29.23
2018-05-27T11:25:29.383Z,29.83
2018-05-27T11:26:29.348Z,29.41
2018-05-27T11:27:29.344Z,28.61
2018-05-27T11:28:29.303Z,28.55
2018-05-27T11:29:29.291Z,29.27
2018-05-27T11:30:29.279Z,29.71
2018-05-27T11:31:29.244Z,29.06
2018-05-27T11:32:29.249Z,29.18
2018-05-27T11:33:29.237Z,28.85
2018-05-27T11:34:29.195Z,28.96
2018-05-27T11:35:29.202Z,28.68
2018-05-27T11:36:29.161Z,28.29
2018-05-27T11:37:29.135Z,28.54
2018-05-27T11:38:29.112Z,28.77
2018-05-27T11:39:29.106Z,28.27
2018-05-27T11:40:29.075Z,28.52
2018-05-27T11:41:29.080Z,27.99
2018-05-27T11:42:29.052Z,28.18
2018-05-27T11:43:29.027Z,28.37
2018-05-27T11:44:29.013Z,28.44
2018-05-27T11:45:29.012Z,28.49
2018-05-27T11:46:28.964Z,27.62
2018-05-27T11:47:28.967Z,27.41
2018-05-27T11:48:28.933Z,26.94
2018-05-27T11:49:28.904Z,26.94
2018-05-27T11:50:28.902Z,26.82
2018-05-27T11:51:28.874Z,26.70
2018-05-27T11:52:28.880Z,26.69
2018-05-27T11:53:28.842Z,26.63
2018-05-27T11:54:28.829Z,26.60
2018-05-27T11:55:28.820Z,26.69
2018-05-27T11:56:28.777Z,26.72
2018-05-27T11:57:28.747Z,26.87
2018-05-27T11:58:28.724Z,27.13
2018-05-27T11:59:28.730Z,27.32
2018-05-27T12:00:28.680Z,27.43
2018-05-27T12:01:28.666Z,27.90
2018-05-27T12:02:28.633Z,27.59
2018-05-27T12:03:28.619Z,26.88
2018-05-27T12:04:28.600Z,26.95
2018-05-27T12:05:28.574Z,27.09
2018-05-27T12:06:28.548Z,26.88
2018-05-27T12:07:28.537Z,26.69
2018-05-27T12:08:28.506Z,26.45
2018-05-27T12:09:28.619Z,25.97
2018-05-27T12:10:28.479Z,26.02
2018-05-27T12:11:28.477Z,26.13
2018-05-27T12:12:28.436Z,25.72
2018-05-27T12:13:28.402Z,25.75
2018-05-27T12:14:28.375Z,25.55
2018-05-27T12:15:28.356Z,25.40
2018-05-27T12:16:28.340Z,25.18
2018-05-27T12:17:28.316Z,25.24
2018-05-27T12:18:28.317Z,25.17
2018-05-27T12:19:28.285Z,24.76
2018-05-27T12:20:28.252Z,24.64
2018-05-27T12:21:28.247Z,24.67
2018-05-27T12:22:28.203Z,24.71
2018-05-27T12:23:28.211Z,24.43
2018-05-27T12:24:28.181Z,24.32
2018-05-27T12:25:28.132Z,24.32
2018-05-27T12:26:28.119Z,24.16
2018-05-27T12:27:28.101Z,24.22
2018-05-27T12:28:28.096Z,24.35
2018-05-27T12:29:28.078Z,24.28
2018-05-27T12:30:28.081Z,24.21
2018-05-27T12:31:28.016Z,24.15
2018-05-27T12:32:28.055Z,24.03
2018-05-27T12:33:27.960Z,23.91
2018-05-27T12:34:27.946Z,23.72
2018-05-27T12:35:27.917Z,23.61
2018-05-27T12:36:27.881Z,23.61
2018-05-27T12:37:27.879Z,23.53
2018-05-27T12:38:27.837Z,23.43
2018-05-27T12:39:27.830Z,23.31
2018-05-27T12:40:27.774Z,23.23
2018-05-27T12:41:27.762Z,23.19
2018-05-27T12:42:27.748Z,22.98
2018-05-27T12:43:27.724Z,22.83
2018-05-27T12:44:27.694Z,22.75
2018-05-27T12:45:27.659Z,22.75
2018-05-27T12:46:27.622Z,22.64
2018-05-27T12:47:27.610Z,22.67
2018-05-27T12:48:27.589Z,22.43
2018-05-27T12:49:27.572Z,22.43
2018-05-27T12:50:27.533Z,22.36
2018-05-27T12:51:27.508Z,22.22
2018-05-27T12:52:27.491Z,22.24
2018-05-27T12:53:27.445Z,22.10
2018-05-27T12:54:27.435Z,22.07
2018-05-27T12:55:27.455Z,21.94
2018-05-27T12:56:27.401Z,21.84
2018-05-27T12:57:27.373Z,21.82
2018-05-27T12:58:27.324Z,21.68
2018-05-27T12:59:27.304Z,21.61
2018-05-27T13:00:27.300Z,21.56
2018-05-27T13:01:27.263Z,21.47
2018-05-27T13:02:27.201Z,21.61
2018-05-27T13:03:27.185Z,21.52
2018-05-27T13:04:27.180Z,21.52
2018-05-27T13:05:27.152Z,21.34
2018-05-27T13:06:27.094Z,21.25
2018-05-27T13:07:27.077Z,21.22
2018-05-27T13:08:27.049Z,21.06
2018-05-27T13:09:27.044Z,20.97